createdAt,value
2022-09-26T00:00:10.543Z,18.70
2022-09-26T00:03:02.750Z,18.85
2022-09-26T00:05:36.046Z,19.15
2022-09-26T00:08:05.451Z,18.60
2022-09-26T00:10:34.653Z,17.98
2022-09-26T00:13:03.613Z,16.35
2022-09-26T00:15:32.723Z,18.08
2022-09-26T00:18:01.659Z,19.02
2022-09-26T00:20:30.638Z,19.92
2022-09-26T00:23:01.157Z,16.83
2022-09-26T00:25:30.127Z,17.05
2022-09-26T00:27:59.027Z,18.38
2022-09-26T00:30:28.357Z,19.52
2022-09-26T00:32:57.486Z,18.60
2022-09-26T00:35:26.459Z,19.40
2022-09-26T00:37:55.634Z,18.27
2022-09-26T00:40:28.224Z,20.27
2022-09-26T00:42:57.713Z,20.40
2022-09-26T00:45:31.316Z,19.73
2022-09-26T00:48:03.506Z,20.98
2022-09-26T00:50:36.409Z,18.27
2022-09-26T00:53:09.151Z,20.38
2022-09-26T00:55:43.260Z,18.98
2022-09-26T00:58:17.912Z,18.95
2022-09-26T01:00:50.184Z,19.00
2022-09-26T01:03:22.058Z,21.98
2022-09-26T01:05:51.544Z,20.17
2022-09-26T01:10:53.794Z,17.48
2022-09-26T01:13:23.308Z,21.10
2022-09-26T01:15:52.476Z,21.08
2022-09-26T01:18:22.360Z,20.02
2022-09-26T01:20:58.215Z,20.60
2022-09-26T01:23:56.850Z,20.08
2022-09-26T01:26:59.227Z,20.85
2022-09-26T01:30:01.311Z,22.58
2022-09-26T01:33:08.146Z,19.65
2022-09-26T01:35:51.477Z,22.42
2022-09-26T01:38:29.348Z,19.25
2022-09-26T01:41:12.816Z,21.05
2022-09-26T01:43:49.931Z,21.13
2022-09-26T01:46:31.060Z,20.25
2022-09-26T01:49:09.741Z,19.38
2022-09-26T01:51:49.804Z,19.73
2022-09-26T01:54:22.937Z,18.98
2022-09-26T01:56:58.356Z,18.23
2022-09-26T01:59:33.195Z,19.80
2022-09-26T02:02:09.532Z,18.92
2022-09-26T02:04:44.642Z,21.77
2022-09-26T02:07:17.913Z,19.00
2022-09-26T02:09:59.326Z,19.00
2022-09-26T02:12:34.144Z,19.02
2022-09-26T02:15:08.097Z,20.02
2022-09-26T02:17:41.908Z,19.40
2022-09-26T02:20:17.318Z,20.48
2022-09-26T02:22:48.016Z,19.30
2022-09-26T02:25:17.481Z,17.83
2022-09-26T02:27:46.528Z,18.17
2022-09-26T02:31:17.800Z,17.25
2022-09-26T02:33:47.754Z,18.13
2022-09-26T02:38:49.189Z,15.63
2022-09-26T02:41:51.520Z,16.58
2022-09-26T02:44:49.653Z,17.45
2022-09-26T02:47:47.928Z,17.90
2022-09-26T02:50:32.878Z,18.15
2022-09-26T02:53:20.137Z,16.95
2022-09-26T02:56:09.352Z,18.55
2022-09-26T02:58:48.295Z,18.45
2022-09-26T03:01:22.648Z,19.08
2022-09-26T03:04:00.973Z,15.63
2022-09-26T03:06:35.696Z,17.02
2022-09-26T03:09:07.779Z,17.33
2022-09-26T03:11:37.592Z,17.45
2022-09-26T03:14:08.804Z,16.75
2022-09-26T03:16:44.572Z,17.02
2022-09-26T03:19:22.557Z,16.50
2022-09-26T03:21:51.930Z,16.25
2022-09-26T03:24:24.082Z,16.75
2022-09-26T03:26:53.701Z,17.20
2022-09-26T03:29:23.976Z,17.02
2022-09-26T03:31:53.776Z,17.48
2022-09-26T03:34:23.045Z,16.65
2022-09-26T03:36:53.047Z,17.48
2022-09-26T03:39:24.125Z,17.38
2022-09-26T03:42:05.996Z,16.60
2022-09-26T03:44:35.889Z,17.92
2022-09-26T03:47:14.609Z,17.23
2022-09-26T03:49:46.138Z,16.73
2022-09-26T03:52:15.936Z,18.20
2022-09-26T03:54:47.898Z,18.27
2022-09-26T03:57:19.031Z,16.90
2022-09-26T03:59:55.351Z,18.90
2022-09-26T04:02:25.529Z,17.55
2022-09-26T04:05:10.204Z,18.80
2022-09-26T04:07:39.504Z,19.08
2022-09-26T04:10:10.913Z,18.85
2022-09-26T04:12:41.582Z,19.02
2022-09-26T04:15:12.163Z,20.00
2022-09-26T04:17:42.196Z,19.30
2022-09-26T04:20:11.434Z,18.67
2022-09-26T04:22:42.335Z,21.88
2022-09-26T04:25:12.938Z,19.85
2022-09-26T04:27:42.229Z,21.50
2022-09-26T04:30:13.020Z,20.67
2022-09-26T04:32:54.249Z,21.70
2022-09-26T04:35:38.966Z,20.50
2022-09-26T04:38:09.556Z,21.20
2022-09-26T04:40:42.950Z,22.08
2022-09-26T04:43:14.239Z,22.15
2022-09-26T04:45:44.108Z,21.85
2022-09-26T04:48:15.275Z,21.75
2022-09-26T04:51:12.351Z,23.60
2022-09-26T04:53:42.619Z,22.77
2022-09-26T04:56:21.573Z,23.95
2022-09-26T04:58:51.230Z,22.50
2022-09-26T05:01:22.381Z,24.30
2022-09-26T05:04:17.519Z,25.23
2022-09-26T05:06:46.744Z,26.25
2022-09-26T05:09:25.915Z,24.75
2022-09-26T05:12:02.080Z,25.98
2022-09-26T05:14:34.012Z,26.05
2022-09-26T05:17:03.860Z,27.33
2022-09-26T05:22:38.279Z,27.55
2022-09-26T05:27:55.850Z,29.10
2022-09-26T05:30:31.406Z,32.15
2022-09-26T05:33:01.155Z,32.35
2022-09-26T05:35:35.333Z,32.55
2022-09-26T05:38:06.313Z,32.47
2022-09-26T05:40:55.518Z,30.85
2022-09-26T05:43:29.184Z,32.28
2022-09-26T05:45:59.921Z,33.20
2022-09-26T05:48:35.332Z,34.97
2022-09-26T05:51:06.468Z,35.00
2022-09-26T05:53:35.770Z,34.50
2022-09-26T05:56:05.415Z,34.53
2022-09-26T05:58:56.171Z,34.40
2022-09-26T06:01:57.692Z,36.42
2022-09-26T06:04:41.161Z,34.33
2022-09-26T06:07:33.603Z,35.38
2022-09-26T06:10:07.196Z,38.25
2022-09-26T06:12:45.433Z,36.40
2022-09-26T06:15:18.620Z,38.47
2022-09-26T06:17:48.284Z,37.65
2022-09-26T06:20:17.535Z,37.28
2022-09-26T06:22:46.539Z,38.92
2022-09-26T06:25:15.867Z,40.05
2022-09-26T06:27:45.100Z,41.25
2022-09-26T06:30:14.693Z,36.72
2022-09-26T06:35:22.803Z,40.58
2022-09-26T06:38:10.626Z,38.22
2022-09-26T06:40:40.059Z,34.72
2022-09-26T06:43:09.163Z,31.25
2022-09-26T06:45:56.629Z,25.55
2022-09-26T06:48:32.174Z,26.27
2022-09-26T06:51:04.053Z,29.52
2022-09-26T06:53:34.896Z,28.92
2022-09-26T06:56:05.107Z,25.63
2022-09-26T06:58:34.616Z,24.02
2022-09-26T07:01:07.641Z,26.30
2022-09-26T07:04:15.801Z,25.30
2022-09-26T07:07:07.335Z,26.17
2022-09-26T07:09:36.273Z,25.23
2022-09-26T07:12:16.544Z,22.73
2022-09-26T07:14:50.066Z,24.45
2022-09-26T07:17:28.393Z,22.90
2022-09-26T07:20:13.305Z,24.42
2022-09-26T07:23:08.648Z,23.25
2022-09-26T07:25:39.579Z,22.88
2022-09-26T07:28:10.768Z,23.75
2022-09-26T07:30:50.826Z,23.88
2022-09-26T07:33:39.561Z,21.98
2022-09-26T07:36:11.812Z,22.90
2022-09-26T07:38:42.737Z,23.05
2022-09-26T07:41:12.324Z,22.48
2022-09-26T07:46:50.207Z,23.55
2022-09-26T07:49:37.023Z,23.33
2022-09-26T07:52:25.988Z,20.38
2022-09-26T07:55:20.763Z,19.40
2022-09-26T07:58:10.091Z,22.20
2022-09-26T08:00:52.509Z,20.73
2022-09-26T08:03:50.499Z,22.17
2022-09-26T08:06:28.599Z,22.95
2022-09-26T08:08:59.449Z,20.52
2022-09-26T08:14:53.069Z,21.17
2022-09-26T08:17:37.060Z,20.45
2022-09-26T08:20:07.608Z,21.77
2022-09-26T08:22:37.135Z,21.67
2022-09-26T08:25:09.884Z,21.30
2022-09-26T08:27:53.277Z,20.67
2022-09-26T08:30:25.820Z,20.70
2022-09-26T08:32:59.295Z,20.70
2022-09-26T08:35:29.455Z,22.73
2022-09-26T08:38:17.375Z,22.90
2022-09-26T08:41:22.161Z,22.63
2022-09-26T08:44:32.090Z,22.65
2022-09-26T08:47:33.695Z,20.63
2022-09-26T08:50:24.256Z,20.30
2022-09-26T08:52:56.877Z,20.65
2022-09-26T08:55:30.459Z,20.40
2022-09-26T08:58:05.865Z,20.38
2022-09-26T09:00:38.173Z,18.45
2022-09-26T09:03:24.383Z,17.52
2022-09-26T09:06:01.257Z,19.50
2022-09-26T09:08:36.202Z,16.60
2022-09-26T09:11:23.012Z,16.33
2022-09-26T09:14:11.240Z,18.17
2022-09-26T09:17:10.882Z,17.70
2022-09-26T09:20:17.586Z,17.07
2022-09-26T09:23:36.030Z,9.52
2022-09-26T09:29:25.143Z,10.13
2022-09-26T09:32:22.698Z,9.70
2022-09-26T09:35:19.947Z,9.52
2022-09-26T09:38:03.847Z,11.43
2022-09-26T09:40:46.688Z,9.55
2022-09-26T09:43:26.123Z,11.02
2022-09-26T09:46:04.299Z,11.38
2022-09-26T09:48:34.056Z,10.32
2022-09-26T09:51:13.382Z,8.85
2022-09-26T09:53:59.259Z,9.32
2022-09-26T09:56:41.080Z,8.85
2022-09-26T09:59:40.698Z,8.75
2022-09-26T10:02:23.707Z,8.82
2022-09-26T10:04:59.723Z,8.90
2022-09-26T10:07:29.385Z,9.18
2022-09-26T10:10:26.113Z,8.65
2022-09-26T10:13:14.546Z,8.02
2022-09-26T10:16:05.772Z,8.15
2022-09-26T10:19:03.521Z,9.23
2022-09-26T10:21:39.528Z,8.18
2022-09-26T10:24:24.048Z,6.93
2022-09-26T10:26:59.447Z,9.05
2022-09-26T10:29:38.414Z,8.75
2022-09-26T10:32:09.645Z,9.25
2022-09-26T10:34:42.632Z,8.30
2022-09-26T10:37:24.021Z,7.88
2022-09-26T10:40:18.063Z,7.35
2022-09-26T10:42:47.549Z,7.22
2022-09-26T10:45:20.471Z,6.68
2022-09-26T10:48:08.902Z,6.47
2022-09-26T10:51:02.145Z,6.88
2022-09-26T10:53:40.357Z,6.68
2022-09-26T10:56:13.278Z,7.75
2022-09-26T10:58:47.122Z,6.70
2022-09-26T11:01:26.535Z,6.45
2022-09-26T11:04:00.124Z,5.90
2022-09-26T11:06:35.426Z,5.43
2022-09-26T11:09:21.556Z,5.65
2022-09-26T11:12:25.530Z,6.43
2022-09-26T11:14:59.945Z,5.78
2022-09-26T11:17:47.541Z,7.30
2022-09-26T11:20:28.894Z,5.85
2022-09-26T11:23:07.952Z,5.90
2022-09-26T11:25:58.426Z,6.47
2022-09-26T11:28:36.572Z,4.95
2022-09-26T11:31:27.719Z,5.50
2022-09-26T11:34:21.872Z,5.82
2022-09-26T11:37:19.460Z,6.47
2022-09-26T11:40:20.717Z,6.30
2022-09-26T11:43:14.548Z,6.00
2022-09-26T11:46:04.407Z,5.90
2022-09-26T11:49:31.208Z,6.57
2022-09-26T11:52:46.883Z,7.22
2022-09-26T11:55:29.279Z,5.70
2022-09-26T11:58:05.234Z,5.20
2022-09-26T12:00:44.959Z,5.68
2022-09-26T12:03:37.179Z,5.97
2022-09-26T12:06:20.468Z,5.78
2022-09-26T12:09:12.024Z,5.75
2022-09-26T12:11:53.462Z,5.97
2022-09-26T12:14:39.299Z,5.82
2022-09-26T12:17:19.664Z,6.32
2022-09-26T12:19:58.267Z,4.90
2022-09-26T12:22:36.138Z,5.55
2022-09-26T12:25:27.342Z,5.72
2022-09-26T12:28:16.565Z,5.93
2022-09-26T12:30:57.969Z,4.97
2022-09-26T12:34:03.593Z,5.70
2022-09-26T12:36:48.020Z,5.07
2022-09-26T12:39:38.291Z,5.80
2022-09-26T12:42:26.626Z,6.22
2022-09-26T12:45:26.701Z,5.63
2022-09-26T12:48:22.941Z,5.70
2022-09-26T12:51:08.225Z,5.63
2022-09-26T12:53:56.272Z,6.20
2022-09-26T12:56:40.066Z,5.85
2022-09-26T12:59:23.494Z,7.38
2022-09-26T13:02:14.611Z,5.57
2022-09-26T13:05:17.676Z,6.40
2022-09-26T13:07:57.409Z,5.95
2022-09-26T13:10:40.976Z,6.40
2022-09-26T13:13:40.966Z,6.38
2022-09-26T13:16:26.449Z,6.18
2022-09-26T13:19:01.649Z,7.30
2022-09-26T13:21:44.852Z,6.88
2022-09-26T13:24:21.721Z,6.32
2022-09-26T13:26:54.796Z,5.50
2022-09-26T13:29:28.640Z,5.80
2022-09-26T13:32:11.348Z,7.32
2022-09-26T13:34:47.881Z,6.22
2022-09-26T13:37:38.311Z,7.35
2022-09-26T13:40:22.511Z,6.60
2022-09-26T13:43:02.792Z,5.70
2022-09-26T13:45:46.431Z,5.72
2022-09-26T13:48:26.411Z,4.93
2022-09-26T13:51:12.920Z,6.13
2022-09-26T13:53:51.101Z,5.90
2022-09-26T13:56:51.247Z,5.90
2022-09-26T13:59:50.188Z,5.75
2022-09-26T14:02:23.515Z,5.32
2022-09-26T14:04:54.332Z,5.55
2022-09-26T14:08:05.027Z,6.90
2022-09-26T14:10:39.399Z,5.22
2022-09-26T14:13:20.251Z,3.75
2022-09-26T14:16:31.777Z,3.63
2022-09-26T14:19:07.155Z,3.60
2022-09-26T14:21:39.613Z,3.20
2022-09-26T14:24:33.791Z,4.30
2022-09-26T14:27:39.564Z,3.78
2022-09-26T14:30:25.902Z,3.15
2022-09-26T14:33:02.261Z,3.92
2022-09-26T14:35:35.017Z,3.40
2022-09-26T14:38:10.760Z,3.55
2022-09-26T14:40:40.709Z,4.25
2022-09-26T14:43:17.953Z,4.63
2022-09-26T14:45:50.351Z,3.88
2022-09-26T14:48:35.832Z,4.18
2022-09-26T14:51:25.685Z,3.88
2022-09-26T14:54:00.480Z,4.65
2022-09-26T14:56:42.878Z,4.78
2022-09-26T14:59:42.097Z,4.45
2022-09-26T15:02:46.449Z,4.10
2022-09-26T15:05:25.230Z,4.40
2022-09-26T15:08:00.362Z,4.05
2022-09-26T15:10:42.829Z,4.35
2022-09-26T15:13:26.437Z,4.93
2022-09-26T15:16:10.003Z,3.35
2022-09-26T15:18:42.507Z,3.90
2022-09-26T15:21:19.629Z,4.70
2022-09-26T15:23:53.670Z,5.20
2022-09-26T15:26:26.198Z,4.45
2022-09-26T15:28:57.666Z,5.00
2022-09-26T15:31:30.204Z,4.35
2022-09-26T15:34:02.821Z,4.53
2022-09-26T15:36:37.345Z,5.28
2022-09-26T15:39:38.041Z,4.95
2022-09-26T15:42:39.621Z,5.35
2022-09-26T15:45:27.267Z,5.28
2022-09-26T15:47:58.795Z,4.88
2022-09-26T15:50:32.887Z,6.32
2022-09-26T15:53:07.833Z,7.32
2022-09-26T15:55:49.077Z,6.03
2022-09-26T15:58:23.273Z,5.15
2022-09-26T16:00:54.181Z,7.35
2022-09-26T16:03:48.949Z,6.55
2022-09-26T16:06:31.190Z,6.55
2022-09-26T16:09:07.831Z,6.43
2022-09-26T16:11:47.673Z,6.82
2022-09-26T16:14:30.172Z,5.18
2022-09-26T16:17:11.020Z,5.68
2022-09-26T16:19:46.151Z,3.92
2022-09-26T16:22:44.559Z,3.58
2022-09-26T16:25:34.510Z,6.35
2022-09-26T16:28:42.503Z,14.35
2022-09-26T16:31:26.904Z,44.72
2022-09-26T16:33:58.463Z,40.95
2022-09-26T16:36:29.903Z,31.45
2022-09-26T16:39:02.079Z,33.70
2022-09-26T16:44:35.255Z,14.75
2022-09-26T16:47:29.184Z,10.20
2022-09-26T16:49:58.634Z,12.13
2022-09-26T16:52:34.419Z,16.33
2022-09-26T16:55:06.076Z,10.75
2022-09-26T16:57:39.170Z,9.23
2022-09-26T17:00:35.440Z,9.07
2022-09-26T17:03:15.193Z,16.30
2022-09-26T17:05:44.502Z,10.88
2022-09-26T17:10:43.505Z,7.00
2022-09-26T17:13:17.107Z,4.93
2022-09-26T17:15:49.074Z,5.30
2022-09-26T17:18:22.113Z,5.32
2022-09-26T17:20:52.016Z,4.90
2022-09-26T17:23:40.019Z,4.97
2022-09-26T17:26:20.500Z,5.22
2022-09-26T17:28:50.614Z,5.07
2022-09-26T17:31:22.680Z,5.63
2022-09-26T17:33:54.803Z,5.93
2022-09-26T17:36:27.351Z,6.82
2022-09-26T17:38:59.701Z,6.38
2022-09-26T17:41:31.420Z,6.07
2022-09-26T17:44:01.067Z,6.18
2022-09-26T17:46:35.244Z,5.93
2022-09-26T17:49:06.406Z,6.95
2022-09-26T17:51:36.375Z,6.80
2022-09-26T17:54:07.590Z,7.35
2022-09-26T17:56:36.945Z,7.00
2022-09-26T17:59:12.509Z,7.05
2022-09-26T18:01:43.373Z,7.13
2022-09-26T18:04:17.971Z,9.45
2022-09-26T18:06:47.420Z,9.80
2022-09-26T18:11:51.403Z,9.80
2022-09-26T18:14:20.976Z,9.02
2022-09-26T18:16:52.615Z,8.63
2022-09-26T18:19:22.423Z,8.68
2022-09-26T18:21:55.672Z,9.23
2022-09-26T18:24:29.661Z,10.30
2022-09-26T18:27:03.976Z,11.82
2022-09-26T18:29:38.983Z,13.27
2022-09-26T18:32:18.715Z,12.40
2022-09-26T18:34:50.564Z,12.13
2022-09-26T18:37:19.662Z,15.85
2022-09-26T18:39:54.367Z,16.50
2022-09-26T18:42:25.494Z,17.58
2022-09-26T18:45:01.366Z,16.67
2022-09-26T18:47:37.435Z,16.40
2022-09-26T18:50:08.378Z,14.40
2022-09-26T18:52:37.709Z,17.65
2022-09-26T18:55:35.821Z,21.50
2022-09-26T18:58:23.770Z,22.15
2022-09-26T19:00:56.731Z,22.73
2022-09-26T19:03:30.957Z,20.73
2022-09-26T19:06:06.033Z,16.92
2022-09-26T19:08:38.512Z,16.42
2022-09-26T19:11:13.119Z,14.43
2022-09-26T19:13:44.633Z,14.75
2022-09-26T19:16:14.408Z,14.73
2022-09-26T19:18:45.838Z,14.25
2022-09-26T19:21:24.154Z,13.32
2022-09-26T19:23:53.969Z,13.60
2022-09-26T19:26:31.524Z,12.77
2022-09-26T19:29:02.374Z,11.52
2022-09-26T19:31:31.808Z,12.27
2022-09-26T19:34:03.564Z,12.18
2022-09-26T19:36:33.009Z,13.02
2022-09-26T19:39:02.363Z,12.82
2022-09-26T19:41:31.464Z,13.18
2022-09-26T19:44:02.406Z,13.70
2022-09-26T19:46:31.566Z,13.52
2022-09-26T19:49:03.188Z,13.45
2022-09-26T19:51:35.378Z,12.98
2022-09-26T19:54:06.415Z,12.82
2022-09-26T19:56:36.130Z,11.60
2022-09-26T19:59:05.732Z,10.65
2022-09-26T20:01:35.315Z,11.73
2022-09-26T20:06:37.685Z,11.13
2022-09-26T20:09:14.701Z,11.80
2022-09-26T20:11:43.920Z,11.70
2022-09-26T20:14:25.950Z,11.07
2022-09-26T20:16:58.537Z,13.48
2022-09-26T20:19:35.468Z,12.30
2022-09-26T20:22:07.486Z,11.88
2022-09-26T20:24:39.887Z,10.88
2022-09-26T20:27:15.666Z,11.10
2022-09-26T20:30:03.113Z,11.65
2022-09-26T20:32:33.098Z,10.77
2022-09-26T20:35:06.123Z,9.93
2022-09-26T20:37:41.212Z,11.70
2022-09-26T20:40:17.790Z,11.05
2022-09-26T20:42:50.282Z,10.40
2022-09-26T20:45:23.888Z,10.68
2022-09-26T20:47:53.040Z,11.23
2022-09-26T20:52:53.461Z,9.90
2022-09-26T20:55:22.419Z,12.05
2022-09-26T20:57:51.895Z,9.85
2022-09-26T21:00:22.432Z,10.23
2022-09-26T21:02:54.461Z,10.52
2022-09-26T21:05:27.440Z,10.85
2022-09-26T21:07:58.683Z,10.00
2022-09-26T21:10:29.519Z,10.02
2022-09-26T21:12:59.850Z,11.15
2022-09-26T21:15:31.326Z,10.05
2022-09-26T21:18:01.772Z,9.68
2022-09-26T21:20:33.992Z,10.68
2022-09-26T21:23:22.505Z,10.57
2022-09-26T21:25:52.100Z,10.80
2022-09-26T21:28:26.544Z,11.75
2022-09-26T21:30:58.709Z,12.20
2022-09-26T21:33:28.167Z,11.25
2022-09-26T21:38:28.185Z,10.43
2022-09-26T21:41:01.356Z,10.75
2022-09-26T21:43:36.449Z,9.77
2022-09-26T21:46:05.782Z,9.65
2022-09-26T21:51:08.293Z,9.65
2022-09-26T21:53:43.259Z,9.57
2022-09-26T21:56:17.336Z,9.48
2022-09-26T21:58:47.321Z,10.63
2022-09-26T22:01:16.458Z,10.73
2022-09-26T22:03:45.483Z,9.65
2022-09-26T22:06:16.107Z,11.23
2022-09-26T22:08:45.283Z,11.10
2022-09-26T22:11:14.461Z,11.88
2022-09-26T22:13:43.658Z,12.45
2022-09-26T22:16:14.319Z,12.68
2022-09-26T22:18:43.715Z,11.35
2022-09-26T22:23:43.470Z,10.27
2022-09-26T22:26:12.567Z,10.50
2022-09-26T22:28:41.884Z,11.35
2022-09-26T22:31:10.989Z,12.98
2022-09-26T22:33:40.163Z,11.93
2022-09-26T22:36:09.681Z,13.32
2022-09-26T22:38:40.570Z,17.52
2022-09-26T22:41:11.200Z,12.93
2022-09-26T22:43:40.498Z,13.55
2022-09-26T22:46:11.952Z,14.13
2022-09-26T22:48:43.300Z,13.20
2022-09-26T22:51:13.182Z,11.82
2022-09-26T22:53:43.236Z,11.95
2022-09-26T22:56:15.708Z,12.48
2022-09-26T22:58:47.126Z,11.23
2022-09-26T23:01:18.394Z,11.98
2022-09-26T23:03:47.853Z,12.73
2022-09-26T23:06:17.210Z,12.30
2022-09-26T23:08:46.322Z,9.57
2022-09-26T23:11:18.459Z,12.00
2022-09-26T23:13:47.989Z,11.48
2022-09-26T23:16:20.206Z,12.32
2022-09-26T23:18:50.255Z,11.32
2022-09-26T23:21:21.662Z,12.93
2022-09-26T23:23:52.586Z,12.38
2022-09-26T23:26:27.072Z,12.07
2022-09-26T23:28:58.179Z,12.05
2022-09-26T23:31:28.679Z,11.95
2022-09-26T23:33:58.793Z,13.20
2022-09-26T23:36:28.137Z,12.55
2022-09-26T23:38:59.406Z,14.25
2022-09-26T23:41:29.938Z,11.27
2022-09-26T23:43:59.388Z,11.40
2022-09-26T23:46:28.579Z,11.75
2022-09-26T23:48:57.625Z,13.23
2022-09-26T23:51:26.892Z,12.60
2022-09-26T23:53:56.329Z,14.18
2022-09-26T23:56:25.312Z,14.05
2022-09-26T23:58:57.580Z,14.88
